sensor_id;sensor_type;location;lat;lon;timestamp;pressure;altitude;pressure_sealevel;temperature;humidity
21594;BME280;10959;51.328;7.322;2023-03-20T00:02:10;99028.31;;;11.90;80.69
21594;BME280;10959;51.328;7.322;2023-03-20T00:04:44;99033.47;;;11.77;80.91
21594;BME280;10959;51.328;7.322;2023-03-20T00:07:10;99033.19;;;11.83;81.09
21594;BME280;10959;51.328;7.322;2023-03-20T00:09:37;99033.97;;;11.85;80.93
21594;BME280;10959;51.328;7.322;2023-03-20T00:12:04;99033.56;;;11.75;81.10
21594;BME280;10959;51.328;7.322;2023-03-20T00:14:32;99042.84;;;11.70;81.18
21594;BME280;10959;51.328;7.322;2023-03-20T00:16:59;99037.59;;;11.67;81.34
21594;BME280;10959;51.328;7.322;2023-03-20T00:19:27;99043.00;;;11.67;81.22
21594;BME280;10959;51.328;7.322;2023-03-20T00:21:56;99039.91;;;11.74;80.97
21594;BME280;10959;51.328;7.322;2023-03-20T00:24:23;99047.44;;;11.68;81.37
21594;BME280;10959;51.328;7.322;2023-03-20T00:26:51;99049.72;;;11.58;81.54
21594;BME280;10959;51.328;7.322;2023-03-20T00:29:20;99043.91;;;11.48;81.90
21594;BME280;10959;51.328;7.322;2023-03-20T00:31:48;99039.97;;;11.55;82.13
21594;BME280;10959;51.328;7.322;2023-03-20T00:34:16;99046.94;;;11.59;81.49
21594;BME280;10959;51.328;7.322;2023-03-20T00:36:43;99041.41;;;11.63;81.76
21594;BME280;10959;51.328;7.322;2023-03-20T00:39:11;99055.69;;;11.65;81.40
21594;BME280;10959;51.328;7.322;2023-03-20T00:41:41;99045.66;;;11.49;81.68
21594;BME280;10959;51.328;7.322;2023-03-20T00:44:21;99051.31;;;11.26;81.87
21594;BME280;10959;51.328;7.322;2023-03-20T00:46:51;99057.94;;;11.37;81.82
21594;BME280;10959;51.328;7.322;2023-03-20T00:49:19;99049.78;;;11.39;82.06
21594;BME280;10959;51.328;7.322;2023-03-20T00:51:47;99063.44;;;11.34;81.32
21594;BME280;10959;51.328;7.322;2023-03-20T00:54:16;99068.44;;;11.24;80.92
21594;BME280;10959;51.328;7.322;2023-03-20T00:56:44;99059.72;;;11.00;81.54
21594;BME280;10959;51.328;7.322;2023-03-20T00:59:16;99052.56;;;10.80;82.57
21594;BME280;10959;51.328;7.322;2023-03-20T01:01:44;99056.75;;;10.67;82.84
21594;BME280;10959;51.328;7.322;2023-03-20T01:04:11;99058.75;;;10.82;83.09
21594;BME280;10959;51.328;7.322;2023-03-20T01:06:39;99057.06;;;10.99;82.59
21594;BME280;10959;51.328;7.322;2023-03-20T01:09:06;99057.41;;;11.10;82.06
21594;BME280;10959;51.328;7.322;2023-03-20T01:11:34;99055.91;;;11.23;81.03
21594;BME280;10959;51.328;7.322;2023-03-20T01:14:01;99050.78;;;11.17;80.83
21594;BME280;10959;51.328;7.322;2023-03-20T01:16:28;99048.69;;;11.24;80.30
21594;BME280;10959;51.328;7.322;2023-03-20T01:18:54;99050.06;;;11.33;79.76
21594;BME280;10959;51.328;7.322;2023-03-20T01:21:21;99043.66;;;11.35;79.57
21594;BME280;10959;51.328;7.322;2023-03-20T01:23:48;99041.34;;;11.28;79.12
21594;BME280;10959;51.328;7.322;2023-03-20T01:26:20;99048.59;;;11.26;78.65
21594;BME280;10959;51.328;7.322;2023-03-20T01:28:49;99049.78;;;11.39;78.79
21594;BME280;10959;51.328;7.322;2023-03-20T01:31:16;99055.28;;;11.36;77.68
21594;BME280;10959;51.328;7.322;2023-03-20T01:33:43;99054.81;;;11.28;77.93
21594;BME280;10959;51.328;7.322;2023-03-20T01:36:12;99054.00;;;11.26;77.98
21594;BME280;10959;51.328;7.322;2023-03-20T01:38:39;99050.78;;;11.17;78.00
21594;BME280;10959;51.328;7.322;2023-03-20T01:41:08;99049.34;;;11.10;77.94
21594;BME280;10959;51.328;7.322;2023-03-20T01:43:37;99045.13;;;11.04;77.65
21594;BME280;10959;51.328;7.322;2023-03-20T01:46:14;99044.97;;;10.88;78.12
21594;BME280;10959;51.328;7.322;2023-03-20T01:49:07;99047.03;;;10.83;77.89
21594;BME280;10959;51.328;7.322;2023-03-20T01:51:34;99056.50;;;11.11;78.18
21594;BME280;10959;51.328;7.322;2023-03-20T01:54:04;99069.59;;;11.00;77.17
21594;BME280;10959;51.328;7.322;2023-03-20T01:56:36;99071.72;;;10.93;76.75
21594;BME280;10959;51.328;7.322;2023-03-20T01:59:09;99063.59;;;10.74;76.61
21594;BME280;10959;51.328;7.322;2023-03-20T02:01:41;99057.28;;;10.75;77.35
21594;BME280;10959;51.328;7.322;2023-03-20T02:04:08;99062.16;;;10.86;77.10
21594;BME280;10959;51.328;7.322;2023-03-20T02:06:36;99051.25;;;10.89;77.21
21594;BME280;10959;51.328;7.322;2023-03-20T02:09:04;99056.41;;;10.94;77.48
21594;BME280;10959;51.328;7.322;2023-03-20T02:11:31;99053.16;;;11.06;76.79
21594;BME280;10959;51.328;7.322;2023-03-20T02:13:59;99042.38;;;11.06;76.96
21594;BME280;10959;51.328;7.322;2023-03-20T02:16:26;99047.47;;;11.12;76.53
21594;BME280;10959;51.328;7.322;2023-03-20T02:18:55;99048.16;;;11.16;76.12
21594;BME280;10959;51.328;7.322;2023-03-20T02:24:42;99055.34;;;10.98;76.22
21594;BME280;10959;51.328;7.322;2023-03-20T02:27:17;99054.72;;;11.10;75.59
21594;BME280;10959;51.328;7.322;2023-03-20T02:30:11;99055.34;;;10.98;75.62
21594;BME280;10959;51.328;7.322;2023-03-20T02:33:11;99054.81;;;10.89;75.62
21594;BME280;10959;51.328;7.322;2023-03-20T02:35:59;99070.03;;;10.91;75.38
21594;BME280;10959;51.328;7.322;2023-03-20T02:38:41;99078.75;;;10.96;75.56
21594;BME280;10959;51.328;7.322;2023-03-20T02:41:17;99069.75;;;10.97;74.97
21594;BME280;10959;51.328;7.322;2023-03-20T02:43:52;99063.75;;;10.90;75.39
21594;BME280;10959;51.328;7.322;2023-03-20T02:46:30;99055.75;;;10.88;75.46
21594;BME280;10959;51.328;7.322;2023-03-20T02:49:02;99049.78;;;11.01;75.80
21594;BME280;10959;51.328;7.322;2023-03-20T02:51:36;99040.47;;;11.08;75.40
21594;BME280;10959;51.328;7.322;2023-03-20T02:54:10;99040.31;;;11.11;75.07
21594;BME280;10959;51.328;7.322;2023-03-20T02:56:45;99046.44;;;10.96;74.77
21594;BME280;10959;51.328;7.322;2023-03-20T02:59:21;99056.34;;;10.76;74.65
21594;BME280;10959;51.328;7.322;2023-03-20T03:01:54;99059.13;;;10.75;74.84
21594;BME280;10959;51.328;7.322;2023-03-20T03:04:25;99063.75;;;10.71;74.89
21594;BME280;10959;51.328;7.322;2023-03-20T03:06:53;99070.22;;;10.67;74.84
21594;BME280;10959;51.328;7.322;2023-03-20T03:09:27;99065.41;;;10.54;75.12
21594;BME280;10959;51.328;7.322;2023-03-20T03:11:59;99070.41;;;10.43;75.25
21594;BME280;10959;51.328;7.322;2023-03-20T03:14:31;99079.41;;;10.42;75.90
21594;BME280;10959;51.328;7.322;2023-03-20T03:17:02;99080.88;;;10.49;76.05
21594;BME280;10959;51.328;7.322;2023-03-20T03:19:31;99083.16;;;10.59;75.56
21594;BME280;10959;51.328;7.322;2023-03-20T03:21:59;99084.13;;;10.58;75.89
21594;BME280;10959;51.328;7.322;2023-03-20T03:24:29;99088.34;;;10.63;75.48
21594;BME280;10959;51.328;7.322;2023-03-20T03:26:58;99086.16;;;10.71;75.50
21594;BME280;10959;51.328;7.322;2023-03-20T03:29:30;99092.28;;;10.75;75.32
21594;BME280;10959;51.328;7.322;2023-03-20T03:31:57;99094.63;;;10.83;75.48
21594;BME280;10959;51.328;7.322;2023-03-20T03:34:23;99098.00;;;10.88;74.93
21594;BME280;10959;51.328;7.322;2023-03-20T03:36:56;99084.59;;;10.86;75.00
21594;BME280;10959;51.328;7.322;2023-03-20T03:39:34;99068.84;;;10.77;74.40
21594;BME280;10959;51.328;7.322;2023-03-20T03:42:05;99070.19;;;10.87;74.26
21594;BME280;10959;51.328;7.322;2023-03-20T03:44:37;99063.19;;;10.83;74.43
21594;BME280;10959;51.328;7.322;2023-03-20T03:47:10;99044.97;;;10.88;74.79
21594;BME280;10959;51.328;7.322;2023-03-20T03:49:43;99041.34;;;10.89;74.43
21594;BME280;10959;51.328;7.322;2023-03-20T03:52:14;99043.72;;;10.96;74.46
21594;BME280;10959;51.328;7.322;2023-03-20T03:54:46;99034.94;;;10.92;74.40
21594;BME280;10959;51.328;7.322;2023-03-20T03:57:17;99020.66;;;10.90;73.93
21594;BME280;10959;51.328;7.322;2023-03-20T03:59:49;99018.69;;;10.94;73.91
21594;BME280;10959;51.328;7.322;2023-03-20T04:02:17;99018.63;;;10.95;73.99
21594;BME280;10959;51.328;7.322;2023-03-20T04:04:47;99017.03;;;10.91;73.82
21594;BME280;10959;51.328;7.322;2023-03-20T04:07:15;99012.38;;;10.95;73.60
21594;BME280;10959;51.328;7.322;2023-03-20T04:09:43;99019.50;;;10.96;73.60
21594;BME280;10959;51.328;7.322;2023-03-20T04:12:29;99033.19;;;10.72;73.84
21594;BME280;10959;51.328;7.322;2023-03-20T04:14:57;99043.28;;;10.86;73.51
21594;BME280;10959;51.328;7.322;2023-03-20T04:17:23;99054.03;;;10.87;73.74
21594;BME280;10959;51.328;7.322;2023-03-20T04:19:50;99052.97;;;10.90;73.44
21594;BME280;10959;51.328;7.322;2023-03-20T04:22:16;99066.53;;;10.88;73.52
21594;BME280;10959;51.328;7.322;2023-03-20T04:24:44;99060.13;;;10.91;73.56
21594;BME280;10959;51.328;7.322;2023-03-20T04:27:11;99062.38;;;10.81;73.71
21594;BME280;10959;51.328;7.322;2023-03-20T04:29:37;99056.03;;;10.82;73.12
21594;BME280;10959;51.328;7.322;2023-03-20T04:32:04;99065.06;;;10.81;73.40
21594;BME280;10959;51.328;7.322;2023-03-20T04:34:31;99061.84;;;10.73;73.76
21594;BME280;10959;51.328;7.322;2023-03-20T04:36:57;99054.72;;;10.72;74.27
21594;BME280;10959;51.328;7.322;2023-03-20T04:39:25;99045.97;;;10.67;74.10
21594;BME280;10959;51.328;7.322;2023-03-20T04:41:53;99038.56;;;10.72;74.24
21594;BME280;10959;51.328;7.322;2023-03-20T04:44:19;99043.66;;;10.78;73.79
21594;BME280;10959;51.328;7.322;2023-03-20T04:46:46;99041.91;;;10.77;74.10
21594;BME280;10959;51.328;7.322;2023-03-20T04:49:12;99038.28;;;10.78;74.04
21594;BME280;10959;51.328;7.322;2023-03-20T04:51:39;99029.25;;;10.79;73.68
21594;BME280;10959;51.328;7.322;2023-03-20T04:54:05;99020.34;;;10.77;73.85
21594;BME280;10959;51.328;7.322;2023-03-20T04:56:32;99022.97;;;10.79;73.47
21594;BME280;10959;51.328;7.322;2023-03-20T04:58:59;99025.63;;;10.80;73.29
21594;BME280;10959;51.328;7.322;2023-03-20T05:01:26;99016.88;;;10.75;73.84
21594;BME280;10959;51.328;7.322;2023-03-20T05:03:52;99009.75;;;10.74;73.86
21594;BME280;10959;51.328;7.322;2023-03-20T05:06:24;99012.50;;;10.72;73.83
21594;BME280;10959;51.328;7.322;2023-03-20T05:08:51;99015.28;;;10.71;73.56
21594;BME280;10959;51.328;7.322;2023-03-20T05:11:17;99001.00;;;10.69;73.81
21594;BME280;10959;51.328;7.322;2023-03-20T05:13:44;98996.50;;;10.69;73.88
21594;BME280;10959;51.328;7.322;2023-03-20T05:16:11;98995.47;;;10.72;73.48
21594;BME280;10959;51.328;7.322;2023-03-20T05:18:38;99001.00;;;10.69;73.85
21594;BME280;10959;51.328;7.322;2023-03-20T05:21:06;98995.63;;;10.69;74.00
21594;BME280;10959;51.328;7.322;2023-03-20T05:23:32;98986.72;;;10.67;73.95
21594;BME280;10959;51.328;7.322;2023-03-20T05:25:59;98989.56;;;10.64;73.50
21594;BME280;10959;51.328;7.322;2023-03-20T05:28:32;99000.72;;;10.56;73.89
21594;BME280;10959;51.328;7.322;2023-03-20T05:31:00;99008.72;;;10.58;73.94
21594;BME280;10959;51.328;7.322;2023-03-20T05:33:28;99010.44;;;10.59;74.02
21594;BME280;10959;51.328;7.322;2023-03-20T05:35:54;99001.59;;;10.57;73.74
21594;BME280;10959;51.328;7.322;2023-03-20T05:38:21;99013.97;;;10.61;73.46
21594;BME280;10959;51.328;7.322;2023-03-20T05:40:47;99015.84;;;10.59;73.29
21594;BME280;10959;51.328;7.322;2023-03-20T05:43:14;99022.97;;;10.60;73.53
21594;BME280;10959;51.328;7.322;2023-03-20T05:45:41;99028.50;;;10.57;73.63
21594;BME280;10959;51.328;7.322;2023-03-20T05:48:08;99032.13;;;10.55;73.59
21594;BME280;10959;51.328;7.322;2023-03-20T05:50:36;99041.19;;;10.54;73.71
21594;BME280;10959;51.328;7.322;2023-03-20T05:53:02;99044.94;;;10.50;73.62
21594;BME280;10959;51.328;7.322;2023-03-20T05:55:30;99034.19;;;10.50;73.49
21594;BME280;10959;51.328;7.322;2023-03-20T05:57:57;99050.34;;;10.50;73.54
21594;BME280;10959;51.328;7.322;2023-03-20T06:00:24;99047.56;;;10.52;73.52
21594;BME280;10959;51.328;7.322;2023-03-20T06:02:51;99042.25;;;10.50;74.18
21594;BME280;10959;51.328;7.322;2023-03-20T06:05:17;99036.88;;;10.50;74.15
21594;BME280;10959;51.328;7.322;2023-03-20T06:07:45;99027.19;;;10.46;73.89
21594;BME280;10959;51.328;7.322;2023-03-20T06:10:11;99034.59;;;10.41;74.04
21594;BME280;10959;51.328;7.322;2023-03-20T06:12:38;99039.69;;;10.47;73.86
21594;BME280;10959;51.328;7.322;2023-03-20T06:15:05;99030.03;;;10.43;73.75
21594;BME280;10959;51.328;7.322;2023-03-20T06:17:32;99025.56;;;10.42;73.90
21594;BME280;10959;51.328;7.322;2023-03-20T06:19:58;99031.69;;;10.46;73.79
21594;BME280;10959;51.328;7.322;2023-03-20T06:22:25;99024.50;;;10.46;73.55
21594;BME280;10959;51.328;7.322;2023-03-20T06:24:53;99029.06;;;10.44;73.43
21594;BME280;10959;51.328;7.322;2023-03-20T06:27:21;99029.06;;;10.44;73.50
21594;BME280;10959;51.328;7.322;2023-03-20T06:29:47;99029.06;;;10.44;73.49
21594;BME280;10959;51.328;7.322;2023-03-20T06:32:14;99029.81;;;10.48;73.90
21594;BME280;10959;51.328;7.322;2023-03-20T06:34:41;99040.50;;;10.49;73.69
21594;BME280;10959;51.328;7.322;2023-03-20T06:37:08;99052.13;;;10.50;73.83
21594;BME280;10959;51.328;7.322;2023-03-20T06:39:35;99046.69;;;10.51;73.16
21594;BME280;10959;51.328;7.322;2023-03-20T06:42:03;99052.06;;;10.51;73.47
21594;BME280;10959;51.328;7.322;2023-03-20T06:44:30;99061.09;;;10.50;73.33
21594;BME280;10959;51.328;7.322;2023-03-20T06:46:56;99061.09;;;10.50;72.90
21594;BME280;10959;51.328;7.322;2023-03-20T06:49:23;99061.22;;;10.47;73.42
21594;BME280;10959;51.328;7.322;2023-03-20T06:51:49;99057.59;;;10.48;73.09
21594;BME280;10959;51.328;7.322;2023-03-20T06:54:16;99051.28;;;10.49;73.35
21594;BME280;10959;51.328;7.322;2023-03-20T06:56:42;99062.84;;;10.51;73.19
21594;BME280;10959;51.328;7.322;2023-03-20T06:59:10;99055.56;;;10.53;73.17
21594;BME280;10959;51.328;7.322;2023-03-20T07:01:37;99070.13;;;10.49;73.01
21594;BME280;10959;51.328;7.322;2023-03-20T07:04:03;99069.97;;;10.52;73.11
21594;BME280;10959;51.328;7.322;2023-03-20T07:06:30;99076.13;;;10.56;72.90
21594;BME280;10959;51.328;7.322;2023-03-20T07:08:57;99080.59;;;10.55;72.78
21594;BME280;10959;51.328;7.322;2023-03-20T07:11:23;99078.59;;;10.61;72.85
21594;BME280;10959;51.328;7.322;2023-03-20T07:13:50;99081.13;;;10.64;73.13
21594;BME280;10959;51.328;7.322;2023-03-20T07:16:17;99088.00;;;10.71;72.67
21594;BME280;10959;51.328;7.322;2023-03-20T07:18:44;99087.47;;;10.63;72.33
21594;BME280;10959;51.328;7.322;2023-03-20T07:21:15;99087.28;;;10.47;72.61
21594;BME280;10959;51.328;7.322;2023-03-20T07:23:43;99084.25;;;10.54;72.84
21594;BME280;10959;51.328;7.322;2023-03-20T07:26:10;99095.47;;;10.64;73.26
21594;BME280;10959;51.328;7.322;2023-03-20T07:28:36;99085.00;;;10.77;73.10
21594;BME280;10959;51.328;7.322;2023-03-20T07:31:03;99084.59;;;10.86;72.75
21594;BME280;10959;51.328;7.322;2023-03-20T07:33:31;99088.75;;;10.94;72.33
21594;BME280;10959;51.328;7.322;2023-03-20T07:35:57;99090.34;;;10.98;72.54
21594;BME280;10959;51.328;7.322;2023-03-20T07:38:24;99085.50;;;11.06;72.38
21594;BME280;10959;51.328;7.322;2023-03-20T07:40:52;99091.00;;;11.03;71.98
21594;BME280;10959;51.328;7.322;2023-03-20T07:43:18;99092.75;;;11.04;72.29
21594;BME280;10959;51.328;7.322;2023-03-20T07:45:45;99089.34;;;11.00;72.16
21594;BME280;10959;51.328;7.322;2023-03-20T07:48:11;99096.63;;;10.98;71.76
21594;BME280;10959;51.328;7.322;2023-03-20T07:50:39;99090.88;;;11.06;71.57
21594;BME280;10959;51.328;7.322;2023-03-20T07:53:06;99098.00;;;11.07;71.81
21594;BME280;10959;51.328;7.322;2023-03-20T07:55:32;99102.00;;;11.17;71.56
21594;BME280;10959;51.328;7.322;2023-03-20T07:57:59;99100.91;;;11.21;71.72
21594;BME280;10959;51.328;7.322;2023-03-20T08:00:25;99098.59;;;11.33;71.66
21594;BME280;10959;51.328;7.322;2023-03-20T08:02:52;99094.88;;;11.35;71.34
21594;BME280;10959;51.328;7.322;2023-03-20T08:05:21;99096.25;;;11.44;70.94
21594;BME280;10959;51.328;7.322;2023-03-20T08:07:48;99103.81;;;11.55;70.57
21594;BME280;10959;51.328;7.322;2023-03-20T08:10:15;99109.94;;;11.58;70.47
21594;BME280;10959;51.328;7.322;2023-03-20T08:12:42;99116.13;;;11.61;70.38
21594;BME280;10959;51.328;7.322;2023-03-20T08:15:09;99113.59;;;11.57;70.13
21594;BME280;10959;51.328;7.322;2023-03-20T08:17:36;99107.22;;;11.58;70.11
21594;BME280;10959;51.328;7.322;2023-03-20T08:20:03;99110.81;;;11.59;69.65
21594;BME280;10959;51.328;7.322;2023-03-20T08:22:31;99106.44;;;11.56;69.79
21594;BME280;10959;51.328;7.322;2023-03-20T08:24:59;99112.78;;;11.55;68.94
21594;BME280;10959;51.328;7.322;2023-03-20T08:27:25;99109.94;;;11.58;69.41
21594;BME280;10959;51.328;7.322;2023-03-20T08:29:52;99112.63;;;11.58;68.69
21594;BME280;10959;51.328;7.322;2023-03-20T08:32:18;99122.78;;;11.53;68.24
21594;BME280;10959;51.328;7.322;2023-03-20T08:34:44;99124.97;;;11.45;68.15
21594;BME280;10959;51.328;7.322;2023-03-20T08:37:11;99126.84;;;11.43;67.23
21594;BME280;10959;51.328;7.322;2023-03-20T08:39:38;99126.84;;;11.43;68.10
21594;BME280;10959;51.328;7.322;2023-03-20T08:42:06;99124.09;;;11.26;65.94
21594;BME280;10959;51.328;7.322;2023-03-20T08:44:32;99126.94;;;11.22;67.44
21594;BME280;10959;51.328;7.322;2023-03-20T08:46:58;99122.78;;;11.34;68.26
21594;BME280;10959;51.328;7.322;2023-03-20T08:49:26;99123.34;;;11.41;67.58
21594;BME280;10959;51.328;7.322;2023-03-20T08:51:53;99126.84;;;11.43;67.90
21594;BME280;10959;51.328;7.322;2023-03-20T08:54:19;99125.13;;;11.42;65.74
21594;BME280;10959;51.328;7.322;2023-03-20T08:56:45;99130.94;;;11.33;66.17
21594;BME280;10959;51.328;7.322;2023-03-20T08:59:13;99129.84;;;11.37;66.80
21594;BME280;10959;51.328;7.322;2023-03-20T09:01:40;99122.56;;;11.39;67.29
21594;BME280;10959;51.328;7.322;2023-03-20T09:04:06;99117.81;;;11.44;66.76
21594;BME280;10959;51.328;7.322;2023-03-20T09:06:35;99122.47;;;11.21;65.13
21594;BME280;10959;51.328;7.322;2023-03-20T09:09:01;99122.47;;;11.21;66.74
21594;BME280;10959;51.328;7.322;2023-03-20T09:11:28;99121.31;;;11.27;67.13
21594;BME280;10959;51.328;7.322;2023-03-20T09:13:54;99125.75;;;11.47;67.46
21594;BME280;10959;51.328;7.322;2023-03-20T09:16:22;99124.50;;;11.54;67.21
21594;BME280;10959;51.328;7.322;2023-03-20T09:18:49;99117.66;;;11.47;65.65
21594;BME280;10959;51.328;7.322;2023-03-20T09:21:15;99120.50;;;11.44;64.89
21594;BME280;10959;51.328;7.322;2023-03-20T09:23:41;99123.06;;;11.47;65.55
21594;BME280;10959;51.328;7.322;2023-03-20T09:26:08;99116.22;;;11.59;66.17
21594;BME280;10959;51.328;7.322;2023-03-20T09:28:35;99129.63;;;11.61;66.46
21594;BME280;10959;51.328;7.322;2023-03-20T09:31:01;99126.78;;;11.64;66.12
21594;BME280;10959;51.328;7.322;2023-03-20T09:33:29;99124.50;;;11.73;66.10
21594;BME280;10959;51.328;7.322;2023-03-20T09:35:56;99119.97;;;11.74;65.56
21594;BME280;10959;51.328;7.322;2023-03-20T09:38:22;99118.78;;;11.80;66.03
21594;BME280;10959;51.328;7.322;2023-03-20T09:40:51;99125.38;;;11.74;63.55
21594;BME280;10959;51.328;7.322;2023-03-20T09:43:27;99122.63;;;11.56;64.97
21594;BME280;10959;51.328;7.322;2023-03-20T09:46:04;99121.44;;;11.62;65.01
21594;BME280;10959;51.328;7.322;2023-03-20T09:48:40;99118.69;;;11.64;65.09
21594;BME280;10959;51.328;7.322;2023-03-20T09:51:14;99120.81;;;11.74;65.27
21594;BME280;10959;51.328;7.322;2023-03-20T09:53:48;99120.91;;;11.73;64.80
21594;BME280;10959;51.328;7.322;2023-03-20T09:56:18;99113.31;;;11.81;64.50
21594;BME280;10959;51.328;7.322;2023-03-20T09:58:51;99125.53;;;11.71;63.66
21594;BME280;10959;51.328;7.322;2023-03-20T10:01:21;99125.53;;;11.71;63.74
21594;BME280;10959;51.328;7.322;2023-03-20T10:03:52;99117.28;;;11.74;64.36
21594;BME280;10959;51.328;7.322;2023-03-20T10:06:21;99113.31;;;11.81;64.76
21594;BME280;10959;51.328;7.322;2023-03-20T10:08:47;99123.59;;;11.73;62.94
21594;BME280;10959;51.328;7.322;2023-03-20T10:11:25;99118.69;;;11.64;63.54
21594;BME280;10959;51.328;7.322;2023-03-20T10:14:03;99119.97;;;11.74;63.58
21594;BME280;10959;51.328;7.322;2023-03-20T10:16:44;99124.06;;;11.64;63.40
21594;BME280;10959;51.328;7.322;2023-03-20T10:19:21;99129.16;;;11.70;63.63
21594;BME280;10959;51.328;7.322;2023-03-20T10:21:50;99126.03;;;11.79;62.85
21594;BME280;10959;51.328;7.322;2023-03-20T10:24:25;99123.59;;;11.73;62.99
21594;BME280;10959;51.328;7.322;2023-03-20T10:26:57;99123.16;;;11.82;63.17
21594;BME280;10959;51.328;7.322;2023-03-20T10:29:32;99130.00;;;11.89;63.25
21594;BME280;10959;51.328;7.322;2023-03-20T10:32:08;99119.53;;;11.83;62.99
21594;BME280;10959;51.328;7.322;2023-03-20T10:34:51;99124.41;;;11.75;63.15
21594;BME280;10959;51.328;7.322;2023-03-20T10:37:30;99117.44;;;11.88;63.08
21594;BME280;10959;51.328;7.322;2023-03-20T10:40:20;99111.50;;;11.82;61.54
21594;BME280;10959;51.328;7.322;2023-03-20T10:42:50;99105.28;;;11.80;60.49
21594;BME280;10959;51.328;7.322;2023-03-20T10:45:37;99106.59;;;11.53;60.76
21594;BME280;10959;51.328;7.322;2023-03-20T10:48:10;99107.88;;;11.64;61.71
21594;BME280;10959;51.328;7.322;2023-03-20T10:50:44;99103.78;;;11.74;62.68
21594;BME280;10959;51.328;7.322;2023-03-20T10:53:22;99095.53;;;11.77;62.65
21594;BME280;10959;51.328;7.322;2023-03-20T10:55:49;99099.09;;;11.97;62.15
21594;BME280;10959;51.328;7.322;2023-03-20T10:58:18;99101.38;;;12.04;61.70
21594;BME280;10959;51.328;7.322;2023-03-20T11:00:47;99103.72;;;12.12;61.75
21594;BME280;10959;51.328;7.322;2023-03-20T11:03:20;99100.38;;;12.07;61.32
21594;BME280;10959;51.328;7.322;2023-03-20T11:05:52;99100.94;;;12.14;61.81
21594;BME280;10959;51.328;7.322;2023-03-20T11:08:23;99097.53;;;12.27;61.67
21594;BME280;10959;51.328;7.322;2023-03-20T11:10:58;99087.34;;;12.15;60.46
21594;BME280;10959;51.328;7.322;2023-03-20T11:13:26;99094.19;;;12.22;59.84
21594;BME280;10959;51.328;7.322;2023-03-20T11:15:55;99085.44;;;12.17;59.23
21594;BME280;10959;51.328;7.322;2023-03-20T11:18:24;99089.47;;;12.26;60.12
21594;BME280;10959;51.328;7.322;2023-03-20T11:20:54;99084.97;;;12.26;59.38
21594;BME280;10959;51.328;7.322;2023-03-20T11:23:24;99087.34;;;12.33;59.77
21594;BME280;10959;51.328;7.322;2023-03-20T11:25:54;99086.72;;;12.45;60.12
21594;BME280;10959;51.328;7.322;2023-03-20T11:28:30;99079.25;;;12.33;60.75
21594;BME280;10959;51.328;7.322;2023-03-20T11:30:59;99078.28;;;12.51;59.94
21594;BME280;10959;51.328;7.322;2023-03-20T11:33:28;99071.75;;;12.55;60.27
21594;BME280;10959;51.328;7.322;2023-03-20T11:35:57;99066.81;;;12.64;59.99
21594;BME280;10959;51.328;7.322;2023-03-20T11:38:24;99058.78;;;12.62;59.37
21594;BME280;10959;51.328;7.322;2023-03-20T11:40:51;99051.63;;;12.61;59.08
21594;BME280;10959;51.328;7.322;2023-03-20T11:43:19;99060.00;;;12.56;58.90
21594;BME280;10959;51.328;7.322;2023-03-20T11:45:48;99061.59;;;12.60;57.68
21594;BME280;10959;51.328;7.322;2023-03-20T11:48:17;99057.41;;;12.71;58.22
21594;BME280;10959;51.328;7.322;2023-03-20T11:50:47;99052.56;;;12.77;58.50
21594;BME280;10959;51.328;7.322;2023-03-20T11:53:22;99056.00;;;12.64;56.56
21594;BME280;10959;51.328;7.322;2023-03-20T11:56:12;99056.66;;;12.51;58.36
21594;BME280;10959;51.328;7.322;2023-03-20T11:58:54;99055.84;;;12.67;58.68
21594;BME280;10959;51.328;7.322;2023-03-20T12:01:21;99051.31;;;12.83;58.94
21594;BME280;10959;51.328;7.322;2023-03-20T12:03:50;99054.66;;;12.88;59.17
21594;BME280;10959;51.328;7.322;2023-03-20T12:06:20;99054.47;;;12.91;58.89
21594;BME280;10959;51.328;7.322;2023-03-20T12:08:53;99051.50;;;12.80;58.79
21594;BME280;10959;51.328;7.322;2023-03-20T12:11:33;99048.03;;;12.78;58.86
21594;BME280;10959;51.328;7.322;2023-03-20T12:14:07;99051.75;;;12.75;57.90
21594;BME280;10959;51.328;7.322;2023-03-20T12:16:38;99052.31;;;12.82;58.67
21594;BME280;10959;51.328;7.322;2023-03-20T12:19:10;99051.84;;;12.74;59.06
21594;BME280;10959;51.328;7.322;2023-03-20T12:21:43;99053.59;;;12.75;59.49
21594;BME280;10959;51.328;7.322;2023-03-20T12:24:15;99055.66;;;12.70;59.87
21594;BME280;10959;51.328;7.322;2023-03-20T12:26:50;99060.72;;;12.76;60.17
21594;BME280;10959;51.328;7.322;2023-03-20T12:29:22;99059.19;;;12.72;60.64
21594;BME280;10959;51.328;7.322;2023-03-20T12:31:54;99057.06;;;12.77;61.00
21594;BME280;10959;51.328;7.322;2023-03-20T12:34:25;99073.03;;;12.48;59.50
21594;BME280;10959;51.328;7.322;2023-03-20T12:36:53;99069.84;;;12.40;61.24
21594;BME280;10959;51.328;7.322;2023-03-20T12:39:24;99060.81;;;12.41;61.03
21594;BME280;10959;51.328;7.322;2023-03-20T12:42:01;99061.16;;;12.35;60.53
21594;BME280;10959;51.328;7.322;2023-03-20T12:44:38;99060.34;;;12.33;60.68
21594;BME280;10959;51.328;7.322;2023-03-20T12:47:14;99053.44;;;12.27;60.96
21594;BME280;10959;51.328;7.322;2023-03-20T12:49:50;99056.56;;;12.19;60.65
21594;BME280;10959;51.328;7.322;2023-03-20T12:52:28;99056.84;;;12.13;61.66
21594;BME280;10959;51.328;7.322;2023-03-20T12:55:11;99057.75;;;12.14;62.04
21594;BME280;10959;51.328;7.322;2023-03-20T12:57:50;99044.63;;;12.23;62.25
21594;BME280;10959;51.328;7.322;2023-03-20T13:00:23;99052.41;;;12.30;61.82
21594;BME280;10959;51.328;7.322;2023-03-20T13:03:03;99053.44;;;12.27;62.93
21594;BME280;10959;51.328;7.322;2023-03-20T13:05:36;99048.94;;;12.27;63.37
21594;BME280;10959;51.328;7.322;2023-03-20T13:08:20;99048.53;;;12.18;62.76
21594;BME280;10959;51.328;7.322;2023-03-20T13:10:58;99040.81;;;12.10;63.05
21594;BME280;10959;51.328;7.322;2023-03-20T13:13:32;99039.47;;;12.19;63.41
21594;BME280;10959;51.328;7.322;2023-03-20T13:16:11;99044.94;;;12.17;63.40
21594;BME280;10959;51.328;7.322;2023-03-20T13:18:51;99054.47;;;12.24;63.82